sensor_id;sensor_type;location;lat;lon;timestamp;temperature;humidity
21770;DHT22;11046;49.558;8.674;2023-06-26T00:00:56;21.90;54.60
21770;DHT22;11046;49.558;8.674;2023-06-26T00:03:58;21.90;54.70
21770;DHT22;11046;49.558;8.674;2023-06-26T00:06:58;22.00;54.70
21770;DHT22;11046;49.558;8.674;2023-06-26T00:10:00;21.90;54.80
21770;DHT22;11046;49.558;8.674;2023-06-26T00:13:01;21.80;55.20
21770;DHT22;11046;49.558;8.674;2023-06-26T00:16:02;21.70;55.40
21770;DHT22;11046;49.558;8.674;2023-06-26T00:19:03;21.70;55.60
21770;DHT22;11046;49.558;8.674;2023-06-26T00:22:04;21.60;55.80
21770;DHT22;11046;49.558;8.674;2023-06-26T00:25:04;21.60;56.10
21770;DHT22;11046;49.558;8.674;2023-06-26T00:28:05;21.50;56.40
21770;DHT22;11046;49.558;8.674;2023-06-26T00:31:06;21.40;56.50
21770;DHT22;11046;49.558;8.674;2023-06-26T00:34:06;21.30;56.80
21770;DHT22;11046;49.558;8.674;2023-06-26T00:37:07;21.20;57.10
21770;DHT22;11046;49.558;8.674;2023-06-26T00:40:08;21.00;57.40
21770;DHT22;11046;49.558;8.674;2023-06-26T00:43:09;21.00;57.70
21770;DHT22;11046;49.558;8.674;2023-06-26T00:46:12;20.90;57.90
21770;DHT22;11046;49.558;8.674;2023-06-26T00:49:13;20.80;58.10
21770;DHT22;11046;49.558;8.674;2023-06-26T00:52:15;20.80;58.30
21770;DHT22;11046;49.558;8.674;2023-06-26T00:55:17;20.80;58.40
21770;DHT22;11046;49.558;8.674;2023-06-26T00:58:18;20.80;58.60
21770;DHT22;11046;49.558;8.674;2023-06-26T01:01:18;20.70;59.40
21770;DHT22;11046;49.558;8.674;2023-06-26T01:04:21;20.60;58.90
21770;DHT22;11046;49.558;8.674;2023-06-26T01:07:27;20.50;59.30
21770;DHT22;11046;49.558;8.674;2023-06-26T01:10:28;20.40;59.60
21770;DHT22;11046;49.558;8.674;2023-06-26T01:13:29;20.30;59.80
21770;DHT22;11046;49.558;8.674;2023-06-26T01:16:31;20.30;60.30
21770;DHT22;11046;49.558;8.674;2023-06-26T01:19:32;20.10;60.70
21770;DHT22;11046;49.558;8.674;2023-06-26T01:23:05;19.90;61.30
21770;DHT22;11046;49.558;8.674;2023-06-26T01:29:17;19.70;62.10
21770;DHT22;11046;49.558;8.674;2023-06-26T01:32:19;19.60;62.10
21770;DHT22;11046;49.558;8.674;2023-06-26T01:35:21;19.60;62.60
21770;DHT22;11046;49.558;8.674;2023-06-26T01:38:22;19.50;62.80
21770;DHT22;11046;49.558;8.674;2023-06-26T01:41:26;19.40;63.10
21770;DHT22;11046;49.558;8.674;2023-06-26T01:44:28;19.30;63.60
21770;DHT22;11046;49.558;8.674;2023-06-26T01:47:31;19.20;64.10
21770;DHT22;11046;49.558;8.674;2023-06-26T01:50:33;19.10;65.20
21770;DHT22;11046;49.558;8.674;2023-06-26T01:53:38;19.10;64.60
21770;DHT22;11046;49.558;8.674;2023-06-26T01:56:43;19.00;64.90
21770;DHT22;11046;49.558;8.674;2023-06-26T01:59:46;18.90;65.20
21770;DHT22;11046;49.558;8.674;2023-06-26T02:02:47;19.00;65.30
21770;DHT22;11046;49.558;8.674;2023-06-26T02:05:48;19.00;65.20
21770;DHT22;11046;49.558;8.674;2023-06-26T02:08:48;19.00;65.30
21770;DHT22;11046;49.558;8.674;2023-06-26T02:11:49;19.00;65.40
21770;DHT22;11046;49.558;8.674;2023-06-26T02:14:50;19.00;65.50
21770;DHT22;11046;49.558;8.674;2023-06-26T02:17:51;19.00;65.60
21770;DHT22;11046;49.558;8.674;2023-06-26T02:20:52;18.90;65.80
21770;DHT22;11046;49.558;8.674;2023-06-26T02:23:52;18.90;65.80
21770;DHT22;11046;49.558;8.674;2023-06-26T02:26:53;18.90;66.00
21770;DHT22;11046;49.558;8.674;2023-06-26T02:29:53;18.80;66.20
21770;DHT22;11046;49.558;8.674;2023-06-26T02:32:54;18.80;66.50
21770;DHT22;11046;49.558;8.674;2023-06-26T02:35:55;18.70;66.80
21770;DHT22;11046;49.558;8.674;2023-06-26T02:38:55;18.60;67.30
21770;DHT22;11046;49.558;8.674;2023-06-26T02:41:56;18.50;67.40
21770;DHT22;11046;49.558;8.674;2023-06-26T02:44:58;18.60;67.60
21770;DHT22;11046;49.558;8.674;2023-06-26T02:47:58;18.70;67.40
21770;DHT22;11046;49.558;8.674;2023-06-26T02:50:59;18.70;67.30
21770;DHT22;11046;49.558;8.674;2023-06-26T02:54:03;18.70;67.30
21770;DHT22;11046;49.558;8.674;2023-06-26T02:57:04;18.60;67.40
21770;DHT22;11046;49.558;8.674;2023-06-26T03:00:07;18.60;67.60
21770;DHT22;11046;49.558;8.674;2023-06-26T03:03:10;18.50;67.60
21770;DHT22;11046;49.558;8.674;2023-06-26T03:06:10;18.40;67.80
21770;DHT22;11046;49.558;8.674;2023-06-26T03:09:11;18.40;68.00
21770;DHT22;11046;49.558;8.674;2023-06-26T03:12:12;18.40;68.20
21770;DHT22;11046;49.558;8.674;2023-06-26T03:15:12;18.30;68.30
21770;DHT22;11046;49.558;8.674;2023-06-26T03:18:14;18.40;68.60
21770;DHT22;11046;49.558;8.674;2023-06-26T03:21:14;18.30;68.50
21770;DHT22;11046;49.558;8.674;2023-06-26T03:24:15;18.30;68.80
21770;DHT22;11046;49.558;8.674;2023-06-26T03:27:16;18.20;68.90
21770;DHT22;11046;49.558;8.674;2023-06-26T03:30:18;18.20;68.90
21770;DHT22;11046;49.558;8.674;2023-06-26T03:33:21;18.20;69.20
21770;DHT22;11046;49.558;8.674;2023-06-26T03:36:22;18.10;69.20
21770;DHT22;11046;49.558;8.674;2023-06-26T03:39:23;18.20;69.50
21770;DHT22;11046;49.558;8.674;2023-06-26T03:42:23;18.10;69.50
21770;DHT22;11046;49.558;8.674;2023-06-26T03:45:24;18.10;69.60
21770;DHT22;11046;49.558;8.674;2023-06-26T03:48:25;18.10;69.70
21770;DHT22;11046;49.558;8.674;2023-06-26T03:51:25;18.00;70.10
21770;DHT22;11046;49.558;8.674;2023-06-26T03:54:26;18.00;70.20
21770;DHT22;11046;49.558;8.674;2023-06-26T03:57:26;17.90;70.60
21770;DHT22;11046;49.558;8.674;2023-06-26T04:00:27;17.90;70.80
21770;DHT22;11046;49.558;8.674;2023-06-26T04:03:28;17.90;70.90
21770;DHT22;11046;49.558;8.674;2023-06-26T04:06:29;17.90;71.30
21770;DHT22;11046;49.558;8.674;2023-06-26T04:09:31;17.90;71.30
21770;DHT22;11046;49.558;8.674;2023-06-26T04:12:32;17.90;71.70
21770;DHT22;11046;49.558;8.674;2023-06-26T04:15:32;17.90;71.80
21770;DHT22;11046;49.558;8.674;2023-06-26T04:18:33;17.90;71.90
21770;DHT22;11046;49.558;8.674;2023-06-26T04:21:34;17.90;71.90
21770;DHT22;11046;49.558;8.674;2023-06-26T04:24:34;17.90;72.00
21770;DHT22;11046;49.558;8.674;2023-06-26T04:27:35;17.90;72.10
21770;DHT22;11046;49.558;8.674;2023-06-26T04:30:35;18.00;72.40
21770;DHT22;11046;49.558;8.674;2023-06-26T04:33:36;18.00;72.60
21770;DHT22;11046;49.558;8.674;2023-06-26T04:36:37;17.90;72.90
21770;DHT22;11046;49.558;8.674;2023-06-26T04:39:39;17.90;73.00
21770;DHT22;11046;49.558;8.674;2023-06-26T04:42:39;17.90;73.10
21770;DHT22;11046;49.558;8.674;2023-06-26T04:45:40;17.90;73.30
21770;DHT22;11046;49.558;8.674;2023-06-26T04:48:40;17.90;73.40
21770;DHT22;11046;49.558;8.674;2023-06-26T04:51:41;18.00;73.50
21770;DHT22;11046;49.558;8.674;2023-06-26T04:54:42;18.00;73.40
21770;DHT22;11046;49.558;8.674;2023-06-26T04:57:42;18.00;73.60
21770;DHT22;11046;49.558;8.674;2023-06-26T05:00:43;18.00;73.80
21770;DHT22;11046;49.558;8.674;2023-06-26T05:03:43;18.10;73.80
21770;DHT22;11046;49.558;8.674;2023-06-26T05:06:45;18.10;73.80
21770;DHT22;11046;49.558;8.674;2023-06-26T05:09:46;18.20;74.20
21770;DHT22;11046;49.558;8.674;2023-06-26T05:12:46;18.20;74.20
21770;DHT22;11046;49.558;8.674;2023-06-26T05:15:48;18.20;74.40
21770;DHT22;11046;49.558;8.674;2023-06-26T05:18:49;18.30;74.20
21770;DHT22;11046;49.558;8.674;2023-06-26T05:21:50;18.40;74.40
21770;DHT22;11046;49.558;8.674;2023-06-26T05:24:54;18.40;74.60
21770;DHT22;11046;49.558;8.674;2023-06-26T05:27:56;18.50;74.70
21770;DHT22;11046;49.558;8.674;2023-06-26T05:30:57;18.50;74.80
21770;DHT22;11046;49.558;8.674;2023-06-26T05:34:00;18.60;75.00
21770;DHT22;11046;49.558;8.674;2023-06-26T05:37:03;18.90;74.90
21770;DHT22;11046;49.558;8.674;2023-06-26T05:40:04;19.00;74.50
21770;DHT22;11046;49.558;8.674;2023-06-26T05:43:06;19.20;74.50
21770;DHT22;11046;49.558;8.674;2023-06-26T05:46:07;19.30;74.70
21770;DHT22;11046;49.558;8.674;2023-06-26T05:49:07;19.40;74.70
21770;DHT22;11046;49.558;8.674;2023-06-26T05:52:08;19.60;74.80
21770;DHT22;11046;49.558;8.674;2023-06-26T05:55:11;19.70;74.30
21770;DHT22;11046;49.558;8.674;2023-06-26T05:58:12;19.90;74.40
21770;DHT22;11046;49.558;8.674;2023-06-26T06:01:12;20.20;73.90
21770;DHT22;11046;49.558;8.674;2023-06-26T06:04:13;20.40;73.40
21770;DHT22;11046;49.558;8.674;2023-06-26T06:07:14;20.60;73.20
21770;DHT22;11046;49.558;8.674;2023-06-26T06:10:14;20.80;72.90
21770;DHT22;11046;49.558;8.674;2023-06-26T06:13:15;21.10;72.30
21770;DHT22;11046;49.558;8.674;2023-06-26T06:16:16;21.40;71.70
21770;DHT22;11046;49.558;8.674;2023-06-26T06:22:20;22.00;70.30
21770;DHT22;11046;49.558;8.674;2023-06-26T06:25:21;22.40;69.60
21770;DHT22;11046;49.558;8.674;2023-06-26T06:28:22;22.70;68.70
21770;DHT22;11046;49.558;8.674;2023-06-26T06:31:22;23.00;67.90
21770;DHT22;11046;49.558;8.674;2023-06-26T06:34:23;23.20;66.80
21770;DHT22;11046;49.558;8.674;2023-06-26T06:37:23;23.60;66.10
21770;DHT22;11046;49.558;8.674;2023-06-26T06:40:24;24.00;65.10
21770;DHT22;11046;49.558;8.674;2023-06-26T06:43:26;24.40;64.10
21770;DHT22;11046;49.558;8.674;2023-06-26T06:46:26;24.70;63.00
21770;DHT22;11046;49.558;8.674;2023-06-26T06:49:27;25.00;62.20
21770;DHT22;11046;49.558;8.674;2023-06-26T06:52:28;25.40;61.10
21770;DHT22;11046;49.558;8.674;2023-06-26T06:55:28;25.80;59.70
21770;DHT22;11046;49.558;8.674;2023-06-26T06:58:29;26.10;58.50
21770;DHT22;11046;49.558;8.674;2023-06-26T07:01:34;26.40;57.60
21770;DHT22;11046;49.558;8.674;2023-06-26T07:04:34;26.80;56.90
21770;DHT22;11046;49.558;8.674;2023-06-26T07:07:36;27.00;56.10
21770;DHT22;11046;49.558;8.674;2023-06-26T07:10:36;27.20;55.30
21770;DHT22;11046;49.558;8.674;2023-06-26T07:13:37;27.60;54.40
21770;DHT22;11046;49.558;8.674;2023-06-26T07:16:37;27.90;53.60
21770;DHT22;11046;49.558;8.674;2023-06-26T07:19:38;28.20;53.20
21770;DHT22;11046;49.558;8.674;2023-06-26T07:22:39;28.50;52.40
21770;DHT22;11046;49.558;8.674;2023-06-26T07:25:39;28.60;51.40
21770;DHT22;11046;49.558;8.674;2023-06-26T07:28:40;28.50;51.60
21770;DHT22;11046;49.558;8.674;2023-06-26T07:31:40;28.70;51.50
21770;DHT22;11046;49.558;8.674;2023-06-26T07:34:41;29.00;51.10
21770;DHT22;11046;49.558;8.674;2023-06-26T07:37:42;29.20;50.50
21770;DHT22;11046;49.558;8.674;2023-06-26T07:40:42;29.30;49.80
21770;DHT22;11046;49.558;8.674;2023-06-26T07:43:43;29.40;49.50
21770;DHT22;11046;49.558;8.674;2023-06-26T07:46:44;29.50;49.10
21770;DHT22;11046;49.558;8.674;2023-06-26T07:49:47;29.80;48.90
21770;DHT22;11046;49.558;8.674;2023-06-26T07:52:48;29.90;48.50
21770;DHT22;11046;49.558;8.674;2023-06-26T07:55:48;30.10;47.90
21770;DHT22;11046;49.558;8.674;2023-06-26T07:58:49;30.10;47.80
21770;DHT22;11046;49.558;8.674;2023-06-26T08:01:54;30.30;47.90
21770;DHT22;11046;49.558;8.674;2023-06-26T08:04:55;30.50;47.20
21770;DHT22;11046;49.558;8.674;2023-06-26T08:07:55;30.70;46.90
21770;DHT22;11046;49.558;8.674;2023-06-26T08:10:56;30.80;46.60
21770;DHT22;11046;49.558;8.674;2023-06-26T08:13:57;31.10;46.60
21770;DHT22;11046;49.558;8.674;2023-06-26T08:16:58;31.10;46.30
21770;DHT22;11046;49.558;8.674;2023-06-26T08:20:00;31.20;45.90
21770;DHT22;11046;49.558;8.674;2023-06-26T08:23:00;31.30;45.80
21770;DHT22;11046;49.558;8.674;2023-06-26T08:26:01;31.40;45.20
21770;DHT22;11046;49.558;8.674;2023-06-26T08:29:02;31.30;45.20
21770;DHT22;11046;49.558;8.674;2023-06-26T08:32:08;31.40;45.20
21770;DHT22;11046;49.558;8.674;2023-06-26T08:35:09;31.50;45.30
21770;DHT22;11046;49.558;8.674;2023-06-26T08:38:10;31.80;45.40
21770;DHT22;11046;49.558;8.674;2023-06-26T08:41:11;32.00;44.40
21770;DHT22;11046;49.558;8.674;2023-06-26T08:44:11;32.00;44.40
21770;DHT22;11046;49.558;8.674;2023-06-26T08:47:14;32.20;44.10
21770;DHT22;11046;49.558;8.674;2023-06-26T08:50:17;32.10;43.60
21770;DHT22;11046;49.558;8.674;2023-06-26T08:56:48;32.30;43.00
21770;DHT22;11046;49.558;8.674;2023-06-26T08:59:50;31.90;43.30
21770;DHT22;11046;49.558;8.674;2023-06-26T09:02:52;31.90;43.60
21770;DHT22;11046;49.558;8.674;2023-06-26T09:05:52;32.00;43.30
21770;DHT22;11046;49.558;8.674;2023-06-26T09:08:53;32.00;43.30
21770;DHT22;11046;49.558;8.674;2023-06-26T09:11:53;32.00;43.40
21770;DHT22;11046;49.558;8.674;2023-06-26T09:14:56;31.90;43.30
21770;DHT22;11046;49.558;8.674;2023-06-26T09:17:57;32.20;43.10
21770;DHT22;11046;49.558;8.674;2023-06-26T09:21:00;32.70;42.80
21770;DHT22;11046;49.558;8.674;2023-06-26T09:24:07;32.90;42.20
21770;DHT22;11046;49.558;8.674;2023-06-26T09:27:09;33.00;42.40
21770;DHT22;11046;49.558;8.674;2023-06-26T09:30:10;33.40;42.00
21770;DHT22;11046;49.558;8.674;2023-06-26T09:33:19;33.60;41.50
21770;DHT22;11046;49.558;8.674;2023-06-26T09:36:20;33.80;41.00
21770;DHT22;11046;49.558;8.674;2023-06-26T09:39:26;33.80;40.80
21770;DHT22;11046;49.558;8.674;2023-06-26T09:42:26;33.80;40.50
21770;DHT22;11046;49.558;8.674;2023-06-26T09:45:27;33.80;40.60
21770;DHT22;11046;49.558;8.674;2023-06-26T09:48:28;33.80;40.50
21770;DHT22;11046;49.558;8.674;2023-06-26T09:51:30;33.80;40.20
21770;DHT22;11046;49.558;8.674;2023-06-26T09:54:32;34.10;39.70
21770;DHT22;11046;49.558;8.674;2023-06-26T09:57:34;34.30;39.20
21770;DHT22;11046;49.558;8.674;2023-06-26T10:00:35;34.40;39.00
21770;DHT22;11046;49.558;8.674;2023-06-26T10:03:36;34.40;38.70
21770;DHT22;11046;49.558;8.674;2023-06-26T10:06:41;34.50;38.70
21770;DHT22;11046;49.558;8.674;2023-06-26T10:09:43;34.60;38.30
21770;DHT22;11046;49.558;8.674;2023-06-26T10:12:48;34.70;38.30
21770;DHT22;11046;49.558;8.674;2023-06-26T10:15:50;34.80;38.10
21770;DHT22;11046;49.558;8.674;2023-06-26T10:18:53;34.60;38.10
21770;DHT22;11046;49.558;8.674;2023-06-26T10:21:57;34.20;38.20
21770;DHT22;11046;49.558;8.674;2023-06-26T10:24:59;33.80;38.60
21770;DHT22;11046;49.558;8.674;2023-06-26T10:28:02;33.90;38.90
21770;DHT22;11046;49.558;8.674;2023-06-26T10:31:04;33.80;39.00
21770;DHT22;11046;49.558;8.674;2023-06-26T10:34:06;33.60;39.10
21770;DHT22;11046;49.558;8.674;2023-06-26T10:37:06;33.30;39.20
21770;DHT22;11046;49.558;8.674;2023-06-26T10:40:07;33.00;39.70
21770;DHT22;11046;49.558;8.674;2023-06-26T10:43:09;32.80;40.10
21770;DHT22;11046;49.558;8.674;2023-06-26T10:46:10;32.70;40.70
21770;DHT22;11046;49.558;8.674;2023-06-26T10:49:12;32.70;40.70
21770;DHT22;11046;49.558;8.674;2023-06-26T10:52:13;32.50;40.60
21770;DHT22;11046;49.558;8.674;2023-06-26T10:55:14;32.30;41.00
21770;DHT22;11046;49.558;8.674;2023-06-26T11:01:40;32.10;42.50
21770;DHT22;11046;49.558;8.674;2023-06-26T11:04:46;31.90;42.00
21770;DHT22;11046;49.558;8.674;2023-06-26T11:08:08;31.90;42.70
21770;DHT22;11046;49.558;8.674;2023-06-26T11:11:09;32.10;42.40
21770;DHT22;11046;49.558;8.674;2023-06-26T11:14:10;32.20;42.70
21770;DHT22;11046;49.558;8.674;2023-06-26T11:17:11;32.40;42.40
21770;DHT22;11046;49.558;8.674;2023-06-26T11:20:15;32.30;42.10
21770;DHT22;11046;49.558;8.674;2023-06-26T11:23:22;32.10;42.00
21770;DHT22;11046;49.558;8.674;2023-06-26T11:26:25;32.20;41.70
21770;DHT22;11046;49.558;8.674;2023-06-26T11:29:25;32.30;42.00
21770;DHT22;11046;49.558;8.674;2023-06-26T11:32:26;32.50;41.80
21770;DHT22;11046;49.558;8.674;2023-06-26T11:35:28;32.90;41.50
21770;DHT22;11046;49.558;8.674;2023-06-26T11:38:37;33.30;41.80
21770;DHT22;11046;49.558;8.674;2023-06-26T11:41:40;33.70;41.30
21770;DHT22;11046;49.558;8.674;2023-06-26T11:44:42;34.10;40.80
21770;DHT22;11046;49.558;8.674;2023-06-26T11:47:43;34.10;40.30
21770;DHT22;11046;49.558;8.674;2023-06-26T11:50:43;33.80;40.20
21770;DHT22;11046;49.558;8.674;2023-06-26T11:53:46;33.40;40.50
21770;DHT22;11046;49.558;8.674;2023-06-26T11:56:58;33.20;40.80
21770;DHT22;11046;49.558;8.674;2023-06-26T12:00:11;33.00;40.80
21770;DHT22;11046;49.558;8.674;2023-06-26T12:03:12;32.80;41.30
21770;DHT22;11046;49.558;8.674;2023-06-26T12:06:12;33.10;41.30
21770;DHT22;11046;49.558;8.674;2023-06-26T12:09:13;33.40;40.90
21770;DHT22;11046;49.558;8.674;2023-06-26T12:12:17;33.60;40.70
21770;DHT22;11046;49.558;8.674;2023-06-26T12:15:18;33.70;40.60
21770;DHT22;11046;49.558;8.674;2023-06-26T12:18:19;33.90;39.90
21770;DHT22;11046;49.558;8.674;2023-06-26T12:24:47;33.60;39.10
21770;DHT22;11046;49.558;8.674;2023-06-26T12:27:48;33.70;38.90
21770;DHT22;11046;49.558;8.674;2023-06-26T12:34:18;34.10;37.70
21770;DHT22;11046;49.558;8.674;2023-06-26T12:37:18;34.00;38.20
21770;DHT22;11046;49.558;8.674;2023-06-26T12:40:20;34.00;38.10
21770;DHT22;11046;49.558;8.674;2023-06-26T12:43:23;34.20;37.80
21770;DHT22;11046;49.558;8.674;2023-06-26T12:46:34;34.40;37.30
21770;DHT22;11046;49.558;8.674;2023-06-26T12:49:36;34.50;36.50
21770;DHT22;11046;49.558;8.674;2023-06-26T12:52:37;34.60;36.20
21770;DHT22;11046;49.558;8.674;2023-06-26T12:55:38;34.60;36.00
21770;DHT22;11046;49.558;8.674;2023-06-26T12:58:38;34.50;35.20
21770;DHT22;11046;49.558;8.674;2023-06-26T13:01:39;34.20;35.40
21770;DHT22;11046;49.558;8.674;2023-06-26T13:04:40;34.30;35.30
21770;DHT22;11046;49.558;8.674;2023-06-26T13:07:41;34.10;34.70
21770;DHT22;11046;49.558;8.674;2023-06-26T13:10:41;34.20;34.50
21770;DHT22;11046;49.558;8.674;2023-06-26T13:13:42;34.30;34.50
21770;DHT22;11046;49.558;8.674;2023-06-26T13:16:42;34.30;34.60
21770;DHT22;11046;49.558;8.674;2023-06-26T13:19:43;34.30;34.60
21770;DHT22;11046;49.558;8.674;2023-06-26T13:22:44;34.40;34.20
21770;DHT22;11046;49.558;8.674;2023-06-26T13:25:46;34.50;33.80
21770;DHT22;11046;49.558;8.674;2023-06-26T13:28:48;34.40;33.30
21770;DHT22;11046;49.558;8.674;2023-06-26T13:31:48;34.30;33.40
21770;DHT22;11046;49.558;8.674;2023-06-26T13:34:49;34.20;33.30
21770;DHT22;11046;49.558;8.674;2023-06-26T13:37:49;34.00;33.30
21770;DHT22;11046;49.558;8.674;2023-06-26T13:40:51;33.90;33.40
21770;DHT22;11046;49.558;8.674;2023-06-26T13:43:52;33.90;33.30
21770;DHT22;11046;49.558;8.674;2023-06-26T13:46:52;33.80;33.50
21770;DHT22;11046;49.558;8.674;2023-06-26T13:49:53;33.70;33.30
21770;DHT22;11046;49.558;8.674;2023-06-26T13:52:54;33.60;33.10
21770;DHT22;11046;49.558;8.674;2023-06-26T13:55:55;33.60;33.30
21770;DHT22;11046;49.558;8.674;2023-06-26T13:58:55;33.60;33.20
21770;DHT22;11046;49.558;8.674;2023-06-26T14:01:56;33.40;33.10
21770;DHT22;11046;49.558;8.674;2023-06-26T14:04:56;33.00;33.00
21770;DHT22;11046;49.558;8.674;2023-06-26T14:07:57;32.90;33.10
21770;DHT22;11046;49.558;8.674;2023-06-26T14:10:57;32.80;33.40
21770;DHT22;11046;49.558;8.674;2023-06-26T14:13:58;32.90;33.40
21770;DHT22;11046;49.558;8.674;2023-06-26T14:16:58;33.00;33.20
21770;DHT22;11046;49.558;8.674;2023-06-26T14:19:59;33.00;33.00
21770;DHT22;11046;49.558;8.674;2023-06-26T14:23:00;33.00;32.80
21770;DHT22;11046;49.558;8.674;2023-06-26T14:26:00;33.00;32.70
21770;DHT22;11046;49.558;8.674;2023-06-26T14:29:01;32.90;32.30
21770;DHT22;11046;49.558;8.674;2023-06-26T14:32:03;32.70;32.00
21770;DHT22;11046;49.558;8.674;2023-06-26T14:35:04;32.50;31.80
21770;DHT22;11046;49.558;8.674;2023-06-26T14:38:05;32.40;31.90
21770;DHT22;11046;49.558;8.674;2023-06-26T14:41:05;32.30;32.00
21770;DHT22;11046;49.558;8.674;2023-06-26T14:44:06;32.20;32.20
21770;DHT22;11046;49.558;8.674;2023-06-26T14:47:08;32.10;31.60
21770;DHT22;11046;49.558;8.674;2023-06-26T14:50:09;31.90;31.60
21770;DHT22;11046;49.558;8.674;2023-06-26T14:53:09;31.90;31.50
21770;DHT22;11046;49.558;8.674;2023-06-26T14:56:11;32.10;31.70
21770;DHT22;11046;49.558;8.674;2023-06-26T14:59:11;32.20;31.50
21770;DHT22;11046;49.558;8.674;2023-06-26T15:02:13;32.30;31.30
21770;DHT22;11046;49.558;8.674;2023-06-26T15:05:13;32.40;31.20
21770;DHT22;11046;49.558;8.674;2023-06-26T15:08:14;32.40;31.20
21770;DHT22;11046;49.558;8.674;2023-06-26T15:11:14;32.50;31.10
21770;DHT22;11046;49.558;8.674;2023-06-26T15:14:18;32.40;31.30
21770;DHT22;11046;49.558;8.674;2023-06-26T15:17:18;32.40;31.30
21770;DHT22;11046;49.558;8.674;2023-06-26T15:20:19;32.30;31.30
21770;DHT22;11046;49.558;8.674;2023-06-26T15:23:20;32.10;31.20
21770;DHT22;11046;49.558;8.674;2023-06-26T15:26:20;31.80;31.20
21770;DHT22;11046;49.558;8.674;2023-06-26T15:29:21;31.50;31.70
21770;DHT22;11046;49.558;8.674;2023-06-26T15:32:25;31.30;32.00
21770;DHT22;11046;49.558;8.674;2023-06-26T15:35:25;31.30;32.00
21770;DHT22;11046;49.558;8.674;2023-06-26T15:38:27;31.20;32.00
21770;DHT22;11046;49.558;8.674;2023-06-26T15:41:27;31.10;31.90
21770;DHT22;11046;49.558;8.674;2023-06-26T15:44:28;30.90;31.70
21770;DHT22;11046;49.558;8.674;2023-06-26T15:47:28;30.70;31.80
21770;DHT22;11046;49.558;8.674;2023-06-26T15:50:29;30.70;31.90
21770;DHT22;11046;49.558;8.674;2023-06-26T15:53:37;30.60;31.90
21770;DHT22;11046;49.558;8.674;2023-06-26T15:56:38;30.60;31.60
21770;DHT22;11046;49.558;8.674;2023-06-26T15:59:38;30.40;31.90
21770;DHT22;11046;49.558;8.674;2023-06-26T16:02:39;30.40;31.80
21770;DHT22;11046;49.558;8.674;2023-06-26T16:05:40;30.30;31.60
21770;DHT22;11046;49.558;8.674;2023-06-26T16:08:42;30.20;31.80
21770;DHT22;11046;49.558;8.674;2023-06-26T16:11:42;30.30;31.70
21770;DHT22;11046;49.558;8.674;2023-06-26T16:14:43;30.00;31.10
21770;DHT22;11046;49.558;8.674;2023-06-26T16:17:44;30.00;31.10
21770;DHT22;11046;49.558;8.674;2023-06-26T16:20:44;29.90;30.90
21770;DHT22;11046;49.558;8.674;2023-06-26T16:23:46;29.80;30.80
21770;DHT22;11046;49.558;8.674;2023-06-26T16:26:46;29.80;30.80
21770;DHT22;11046;49.558;8.674;2023-06-26T16:29:47;29.60;31.00
21770;DHT22;11046;49.558;8.674;2023-06-26T16:32:48;29.60;31.00
21770;DHT22;11046;49.558;8.674;2023-06-26T16:35:48;29.70;31.00
21770;DHT22;11046;49.558;8.674;2023-06-26T16:38:49;29.60;30.90
21770;DHT22;11046;49.558;8.674;2023-06-26T16:41:50;29.50;30.90
21770;DHT22;11046;49.558;8.674;2023-06-26T16:44:54;29.30;30.90
21770;DHT22;11046;49.558;8.674;2023-06-26T16:47:56;29.30;30.90
21770;DHT22;11046;49.558;8.674;2023-06-26T16:50:56;29.10;30.80
21770;DHT22;11046;49.558;8.674;2023-06-26T16:53:57;29.00;30.80
21770;DHT22;11046;49.558;8.674;2023-06-26T16:56:58;28.90;30.60
21770;DHT22;11046;49.558;8.674;2023-06-26T16:59:59;28.70;30.60
21770;DHT22;11046;49.558;8.674;2023-06-26T17:03:00;28.50;30.50
21770;DHT22;11046;49.558;8.674;2023-06-26T17:06:00;28.50;30.70
21770;DHT22;11046;49.558;8.674;2023-06-26T17:09:01;28.40;30.50
21770;DHT22;11046;49.558;8.674;2023-06-26T17:12:02;28.50;30.50
21770;DHT22;11046;49.558;8.674;2023-06-26T17:15:03;28.40;30.50
21770;DHT22;11046;49.558;8.674;2023-06-26T17:18:04;28.30;30.30
21770;DHT22;11046;49.558;8.674;2023-06-26T17:21:04;28.20;30.30
21770;DHT22;11046;49.558;8.674;2023-06-26T17:24:05;28.10;30.40
21770;DHT22;11046;49.558;8.674;2023-06-26T17:27:13;28.00;30.50
21770;DHT22;11046;49.558;8.674;2023-06-26T17:30:15;27.90;30.60
21770;DHT22;11046;49.558;8.674;2023-06-26T17:33:17;27.90;31.70
21770;DHT22;11046;49.558;8.674;2023-06-26T17:36:18;27.80;31.20
21770;DHT22;11046;49.558;8.674;2023-06-26T17:39:19;27.80;32.50
21770;DHT22;11046;49.558;8.674;2023-06-26T17:42:20;27.80;32.20
21770;DHT22;11046;49.558;8.674;2023-06-26T17:45:21;27.90;32.20
21770;DHT22;11046;49.558;8.674;2023-06-26T17:48:22;27.80;32.90
21770;DHT22;11046;49.558;8.674;2023-06-26T17:51:23;27.70;32.20
21770;DHT22;11046;49.558;8.674;2023-06-26T17:54:24;27.70;32.30
21770;DHT22;11046;49.558;8.674;2023-06-26T17:57:26;27.70;32.30
21770;DHT22;11046;49.558;8.674;2023-06-26T18:00:27;27.60;32.30
21770;DHT22;11046;49.558;8.674;2023-06-26T18:03:29;27.40;33.10
21770;DHT22;11046;49.558;8.674;2023-06-26T18:06:29;27.30;34.40
21770;DHT22;11046;49.558;8.674;2023-06-26T18:09:30;27.20;35.20
21770;DHT22;11046;49.558;8.674;2023-06-26T18:12:31;27.00;35.90
21770;DHT22;11046;49.558;8.674;2023-06-26T18:15:32;26.70;36.40
21770;DHT22;11046;49.558;8.674;2023-06-26T18:18:32;26.50;37.00
21770;DHT22;11046;49.558;8.674;2023-06-26T18:21:33;26.30;37.40
21770;DHT22;11046;49.558;8.674;2023-06-26T18:24:33;26.10;37.80
21770;DHT22;11046;49.558;8.674;2023-06-26T18:27:34;26.00;38.20
21770;DHT22;11046;49.558;8.674;2023-06-26T18:30:36;25.90;38.50
21770;DHT22;11046;49.558;8.674;2023-06-26T18:33:37;25.70;38.60
21770;DHT22;11046;49.558;8.674;2023-06-26T18:36:38;25.60;38.90
21770;DHT22;11046;49.558;8.674;2023-06-26T18:39:38;25.50;39.30
21770;DHT22;11046;49.558;8.674;2023-06-26T18:42:40;25.30;39.30
21770;DHT22;11046;49.558;8.674;2023-06-26T18:45:41;25.30;39.30
21770;DHT22;11046;49.558;8.674;2023-06-26T18:48:42;25.40;39.20
21770;DHT22;11046;49.558;8.674;2023-06-26T18:51:42;25.30;39.30
21770;DHT22;11046;49.558;8.674;2023-06-26T18:54:43;25.30;39.30
21770;DHT22;11046;49.558;8.674;2023-06-26T18:57:44;25.10;39.50
21770;DHT22;11046;49.558;8.674;2023-06-26T19:00:44;25.00;39.60
21770;DHT22;11046;49.558;8.674;2023-06-26T19:03:45;24.90;39.70
21770;DHT22;11046;49.558;8.674;2023-06-26T19:06:45;24.80;39.80
21770;DHT22;11046;49.558;8.674;2023-06-26T19:09:46;24.70;40.00
21770;DHT22;11046;49.558;8.674;2023-06-26T19:12:47;24.70;40.10
21770;DHT22;11046;49.558;8.674;2023-06-26T19:15:49;24.70;40.20
21770;DHT22;11046;49.558;8.674;2023-06-26T19:18:49;24.60;40.20
21770;DHT22;11046;49.558;8.674;2023-06-26T19:21:51;24.50;40.30
21770;DHT22;11046;49.558;8.674;2023-06-26T19:24:52;24.40;40.40